sensor_id;sensor_type;location;lat;lon;timestamp;temperature;humidity
58983;DHT22;44771;49.982;8.560;2022-07-22T00:03:04;16.30;99.90
58983;DHT22;44771;49.982;8.560;2022-07-22T00:08:06;16.30;99.90
58983;DHT22;44771;49.982;8.560;2022-07-22T00:13:08;16.40;99.90
58983;DHT22;44771;49.982;8.560;2022-07-22T00:18:12;16.60;99.90
58983;DHT22;44771;49.982;8.560;2022-07-22T00:31:02;16.80;99.90
58983;DHT22;44771;49.982;8.560;2022-07-22T00:46:37;16.60;99.90
58983;DHT22;44771;49.982;8.560;2022-07-22T00:51:39;16.60;99.90
58983;DHT22;44771;49.982;8.560;2022-07-22T00:56:41;16.60;99.90
58983;DHT22;44771;49.982;8.560;2022-07-22T01:01:45;16.50;99.90
58983;DHT22;44771;49.982;8.560;2022-07-22T01:06:48;16.50;99.90
58983;DHT22;44771;49.982;8.560;2022-07-22T01:11:49;16.40;99.90
58983;DHT22;44771;49.982;8.560;2022-07-22T01:16:53;16.40;99.90
58983;DHT22;44771;49.982;8.560;2022-07-22T01:21:56;16.30;99.90
58983;DHT22;44771;49.982;8.560;2022-07-22T01:26:58;16.00;99.90
58983;DHT22;44771;49.982;8.560;2022-07-22T01:32:00;16.00;99.90
58983;DHT22;44771;49.982;8.560;2022-07-22T01:37:03;15.90;99.90
58983;DHT22;44771;49.982;8.560;2022-07-22T01:42:05;15.90;99.90
58983;DHT22;44771;49.982;8.560;2022-07-22T01:47:08;16.00;99.90
58983;DHT22;44771;49.982;8.560;2022-07-22T01:52:12;16.00;99.90
58983;DHT22;44771;49.982;8.560;2022-07-22T01:57:13;16.00;99.90
58983;DHT22;44771;49.982;8.560;2022-07-22T02:02:15;15.90;99.90
58983;DHT22;44771;49.982;8.560;2022-07-22T02:07:19;15.90;99.90
58983;DHT22;44771;49.982;8.560;2022-07-22T02:12:20;15.90;99.90
58983;DHT22;44771;49.982;8.560;2022-07-22T02:17:23;15.90;99.90
58983;DHT22;44771;49.982;8.560;2022-07-22T02:22:26;15.80;99.90
58983;DHT22;44771;49.982;8.560;2022-07-22T02:27:28;15.80;99.90
58983;DHT22;44771;49.982;8.560;2022-07-22T02:32:30;15.80;99.90
58983;DHT22;44771;49.982;8.560;2022-07-22T02:37:43;15.70;99.90
58983;DHT22;44771;49.982;8.560;2022-07-22T02:42:56;15.60;99.90
58983;DHT22;44771;49.982;8.560;2022-07-22T02:47:58;15.30;99.90
58983;DHT22;44771;49.982;8.560;2022-07-22T02:53:01;15.10;99.90
58983;DHT22;44771;49.982;8.560;2022-07-22T02:58:04;15.00;99.90
58983;DHT22;44771;49.982;8.560;2022-07-22T03:03:08;14.90;99.90
58983;DHT22;44771;49.982;8.560;2022-07-22T03:08:20;14.80;99.90
58983;DHT22;44771;49.982;8.560;2022-07-22T03:13:34;14.70;99.90
58983;DHT22;44771;49.982;8.560;2022-07-22T03:18:43;14.60;99.90
58983;DHT22;44771;49.982;8.560;2022-07-22T03:23:46;14.70;99.90
58983;DHT22;44771;49.982;8.560;2022-07-22T03:28:48;14.80;99.90
58983;DHT22;44771;49.982;8.560;2022-07-22T03:33:50;14.80;99.90
58983;DHT22;44771;49.982;8.560;2022-07-22T03:38:57;15.00;99.90
58983;DHT22;44771;49.982;8.560;2022-07-22T03:43:59;15.10;99.90
58983;DHT22;44771;49.982;8.560;2022-07-22T03:49:06;15.20;99.90
58983;DHT22;44771;49.982;8.560;2022-07-22T03:54:09;15.30;99.90
58983;DHT22;44771;49.982;8.560;2022-07-22T03:59:22;15.40;99.90
58983;DHT22;44771;49.982;8.560;2022-07-22T04:04:27;15.50;99.90
58983;DHT22;44771;49.982;8.560;2022-07-22T04:09:30;15.50;99.90
58983;DHT22;44771;49.982;8.560;2022-07-22T04:14:32;15.60;99.90
58983;DHT22;44771;49.982;8.560;2022-07-22T04:19:34;15.70;99.90
58983;DHT22;44771;49.982;8.560;2022-07-22T04:24:40;15.80;99.90
58983;DHT22;44771;49.982;8.560;2022-07-22T04:29:42;15.80;99.90
58983;DHT22;44771;49.982;8.560;2022-07-22T04:34:59;15.90;99.90
58983;DHT22;44771;49.982;8.560;2022-07-22T04:40:09;15.90;99.90
58983;DHT22;44771;49.982;8.560;2022-07-22T04:45:11;15.80;99.90
58983;DHT22;44771;49.982;8.560;2022-07-22T04:50:13;15.70;99.90
58983;DHT22;44771;49.982;8.560;2022-07-22T04:55:17;15.70;99.90
58983;DHT22;44771;49.982;8.560;2022-07-22T05:00:20;15.60;99.90
58983;DHT22;44771;49.982;8.560;2022-07-22T05:05:31;15.60;99.90
58983;DHT22;44771;49.982;8.560;2022-07-22T05:10:35;15.60;99.90
58983;DHT22;44771;49.982;8.560;2022-07-22T05:15:40;15.60;99.90
58983;DHT22;44771;49.982;8.560;2022-07-22T05:20:45;15.70;99.90
58983;DHT22;44771;49.982;8.560;2022-07-22T05:26:08;15.70;99.90
58983;DHT22;44771;49.982;8.560;2022-07-22T05:31:13;15.90;99.90
58983;DHT22;44771;49.982;8.560;2022-07-22T05:36:15;16.00;99.90
58983;DHT22;44771;49.982;8.560;2022-07-22T05:41:19;16.10;99.90
58983;DHT22;44771;49.982;8.560;2022-07-22T05:46:20;16.30;99.90
58983;DHT22;44771;49.982;8.560;2022-07-22T05:51:23;16.40;99.90
58983;DHT22;44771;49.982;8.560;2022-07-22T05:57:06;16.50;99.90
58983;DHT22;44771;49.982;8.560;2022-07-22T06:02:12;16.60;99.90
58983;DHT22;44771;49.982;8.560;2022-07-22T06:07:14;16.80;99.90
58983;DHT22;44771;49.982;8.560;2022-07-22T06:12:18;16.90;99.90
58983;DHT22;44771;49.982;8.560;2022-07-22T06:17:20;17.20;99.90
58983;DHT22;44771;49.982;8.560;2022-07-22T06:22:22;17.80;99.90
58983;DHT22;44771;49.982;8.560;2022-07-22T06:27:25;18.00;99.90
58983;DHT22;44771;49.982;8.560;2022-07-22T06:32:27;18.30;99.90
58983;DHT22;44771;49.982;8.560;2022-07-22T06:37:29;18.40;99.90
58983;DHT22;44771;49.982;8.560;2022-07-22T06:42:52;18.60;99.90
58983;DHT22;44771;49.982;8.560;2022-07-22T06:47:55;18.50;99.90
58983;DHT22;44771;49.982;8.560;2022-07-22T06:52:57;18.40;99.90
58983;DHT22;44771;49.982;8.560;2022-07-22T06:58:00;18.60;99.90
58983;DHT22;44771;49.982;8.560;2022-07-22T07:03:02;18.80;99.90
58983;DHT22;44771;49.982;8.560;2022-07-22T07:08:27;19.30;99.90
58983;DHT22;44771;49.982;8.560;2022-07-22T07:19:01;19.40;99.90
58983;DHT22;44771;49.982;8.560;2022-07-22T07:24:04;19.30;99.90
58983;DHT22;44771;49.982;8.560;2022-07-22T07:29:06;19.50;99.90
58983;DHT22;44771;49.982;8.560;2022-07-22T07:34:11;19.60;99.90
58983;DHT22;44771;49.982;8.560;2022-07-22T07:39:13;20.00;99.90
58983;DHT22;44771;49.982;8.560;2022-07-22T07:44:14;20.50;99.90
58983;DHT22;44771;49.982;8.560;2022-07-22T07:49:18;20.50;99.90
58983;DHT22;44771;49.982;8.560;2022-07-22T07:54:20;20.50;99.90
58983;DHT22;44771;49.982;8.560;2022-07-22T07:59:22;20.90;99.90
58983;DHT22;44771;49.982;8.560;2022-07-22T08:04:31;21.20;99.90
58983;DHT22;44771;49.982;8.560;2022-07-22T08:09:55;21.30;99.90
58983;DHT22;44771;49.982;8.560;2022-07-22T08:15:27;21.10;99.90
58983;DHT22;44771;49.982;8.560;2022-07-22T08:20:30;21.50;99.90
58983;DHT22;44771;49.982;8.560;2022-07-22T08:25:32;21.90;99.90
58983;DHT22;44771;49.982;8.560;2022-07-22T08:30:34;22.10;99.90
58983;DHT22;44771;49.982;8.560;2022-07-22T08:35:38;22.50;99.90
58983;DHT22;44771;49.982;8.560;2022-07-22T08:40:40;22.70;99.90
58983;DHT22;44771;49.982;8.560;2022-07-22T08:45:43;22.50;99.90
58983;DHT22;44771;49.982;8.560;2022-07-22T08:50:47;22.60;99.90
58983;DHT22;44771;49.982;8.560;2022-07-22T08:55:49;22.80;99.90
58983;DHT22;44771;49.982;8.560;2022-07-22T09:01:04;22.90;99.90
58983;DHT22;44771;49.982;8.560;2022-07-22T09:06:10;23.20;99.90
58983;DHT22;44771;49.982;8.560;2022-07-22T09:11:23;23.40;99.00
58983;DHT22;44771;49.982;8.560;2022-07-22T09:16:39;23.60;99.60
58983;DHT22;44771;49.982;8.560;2022-07-22T09:21:52;24.00;98.20
58983;DHT22;44771;49.982;8.560;2022-07-22T09:27:06;24.10;96.30
58983;DHT22;44771;49.982;8.560;2022-07-22T09:32:24;24.20;96.10
58983;DHT22;44771;49.982;8.560;2022-07-22T09:37:29;24.40;96.00
58983;DHT22;44771;49.982;8.560;2022-07-22T09:42:44;24.80;94.20
58983;DHT22;44771;49.982;8.560;2022-07-22T09:47:48;25.10;93.40
58983;DHT22;44771;49.982;8.560;2022-07-22T09:52:55;25.20;93.10
58983;DHT22;44771;49.982;8.560;2022-07-22T09:58:05;25.20;91.70
58983;DHT22;44771;49.982;8.560;2022-07-22T10:03:10;25.40;90.70
58983;DHT22;44771;49.982;8.560;2022-07-22T10:08:14;25.60;89.80
58983;DHT22;44771;49.982;8.560;2022-07-22T10:13:36;25.80;88.00
58983;DHT22;44771;49.982;8.560;2022-07-22T10:18:39;26.20;85.10
58983;DHT22;44771;49.982;8.560;2022-07-22T10:24:16;26.40;84.80
58983;DHT22;44771;49.982;8.560;2022-07-22T10:29:26;26.60;80.90
58983;DHT22;44771;49.982;8.560;2022-07-22T10:34:28;26.90;80.80
58983;DHT22;44771;49.982;8.560;2022-07-22T10:39:31;26.90;77.10
58983;DHT22;44771;49.982;8.560;2022-07-22T10:44:57;27.30;76.30
58983;DHT22;44771;49.982;8.560;2022-07-22T10:50:41;27.60;73.60
58983;DHT22;44771;49.982;8.560;2022-07-22T10:56:22;27.70;70.30
58983;DHT22;44771;49.982;8.560;2022-07-22T11:07:41;27.90;67.00
58983;DHT22;44771;49.982;8.560;2022-07-22T11:12:45;27.80;67.20
58983;DHT22;44771;49.982;8.560;2022-07-22T11:17:47;28.00;67.80
58983;DHT22;44771;49.982;8.560;2022-07-22T11:22:49;28.30;66.00
58983;DHT22;44771;49.982;8.560;2022-07-22T11:27:55;28.70;64.60
58983;DHT22;44771;49.982;8.560;2022-07-22T11:33:08;29.00;61.40
58983;DHT22;44771;49.982;8.560;2022-07-22T11:38:10;29.10;60.30
58983;DHT22;44771;49.982;8.560;2022-07-22T11:43:13;29.20;63.30
58983;DHT22;44771;49.982;8.560;2022-07-22T11:48:19;29.40;60.60
58983;DHT22;44771;49.982;8.560;2022-07-22T11:53:21;29.40;59.60
58983;DHT22;44771;49.982;8.560;2022-07-22T11:58:42;29.40;60.80
58983;DHT22;44771;49.982;8.560;2022-07-22T12:03:46;29.60;62.70
58983;DHT22;44771;49.982;8.560;2022-07-22T12:08:49;29.80;58.80
58983;DHT22;44771;49.982;8.560;2022-07-22T12:13:52;29.50;58.60
58983;DHT22;44771;49.982;8.560;2022-07-22T12:18:56;29.30;57.40
58983;DHT22;44771;49.982;8.560;2022-07-22T12:24:01;29.60;59.80
58983;DHT22;44771;49.982;8.560;2022-07-22T12:29:28;29.60;59.20
58983;DHT22;44771;49.982;8.560;2022-07-22T12:34:36;29.80;59.30
58983;DHT22;44771;49.982;8.560;2022-07-22T12:39:52;29.80;58.20
58983;DHT22;44771;49.982;8.560;2022-07-22T12:45:07;30.00;55.30
58983;DHT22;44771;49.982;8.560;2022-07-22T12:50:24;30.20;57.40
58983;DHT22;44771;49.982;8.560;2022-07-22T12:55:27;30.00;57.70
58983;DHT22;44771;49.982;8.560;2022-07-22T13:00:32;30.00;57.40
58983;DHT22;44771;49.982;8.560;2022-07-22T13:05:34;30.00;54.00
58983;DHT22;44771;49.982;8.560;2022-07-22T13:10:37;29.90;56.70
58983;DHT22;44771;49.982;8.560;2022-07-22T13:15:45;30.00;54.40
58983;DHT22;44771;49.982;8.560;2022-07-22T13:20:49;30.10;55.00
58983;DHT22;44771;49.982;8.560;2022-07-22T13:25:52;30.40;57.00
58983;DHT22;44771;49.982;8.560;2022-07-22T13:30:58;30.50;53.80
58983;DHT22;44771;49.982;8.560;2022-07-22T13:36:00;30.50;53.70
58983;DHT22;44771;49.982;8.560;2022-07-22T13:41:03;30.40;53.70
58983;DHT22;44771;49.982;8.560;2022-07-22T13:46:09;30.50;51.90
58983;DHT22;44771;49.982;8.560;2022-07-22T13:56:33;30.40;51.50
58983;DHT22;44771;49.982;8.560;2022-07-22T14:01:52;30.60;54.30
58983;DHT22;44771;49.982;8.560;2022-07-22T14:06:55;30.70;52.70
58983;DHT22;44771;49.982;8.560;2022-07-22T14:12:00;30.70;52.20
58983;DHT22;44771;49.982;8.560;2022-07-22T14:17:03;30.80;52.50
58983;DHT22;44771;49.982;8.560;2022-07-22T14:32:43;31.10;53.20
58983;DHT22;44771;49.982;8.560;2022-07-22T14:37:45;31.10;51.70
58983;DHT22;44771;49.982;8.560;2022-07-22T14:48:09;31.00;52.10
58983;DHT22;44771;49.982;8.560;2022-07-22T14:53:17;31.10;50.70
58983;DHT22;44771;49.982;8.560;2022-07-22T14:58:19;31.00;52.40
58983;DHT22;44771;49.982;8.560;2022-07-22T18:09:19;26.30;63.60
58983;DHT22;44771;49.982;8.560;2022-07-22T19:14:05;25.00;67.10
58983;DHT22;44771;49.982;8.560;2022-07-22T19:19:06;24.80;69.00
58983;DHT22;44771;49.982;8.560;2022-07-22T19:29:26;24.20;80.40
58983;DHT22;44771;49.982;8.560;2022-07-22T20:13:12;22.40;94.60
58983;DHT22;44771;49.982;8.560;2022-07-22T20:18:32;22.20;96.00
58983;DHT22;44771;49.982;8.560;2022-07-22T20:23:52;22.10;96.50
58983;DHT22;44771;49.982;8.560;2022-07-22T20:29:20;22.00;96.90
58983;DHT22;44771;49.982;8.560;2022-07-22T20:34:44;21.90;97.90
58983;DHT22;44771;49.982;8.560;2022-07-22T20:56:23;21.20;99.90
58983;DHT22;44771;49.982;8.560;2022-07-22T21:01:31;21.00;99.90
58983;DHT22;44771;49.982;8.560;2022-07-22T21:06:47;20.90;99.90
58983;DHT22;44771;49.982;8.560;2022-07-22T21:11:50;20.80;99.90
58983;DHT22;44771;49.982;8.560;2022-07-22T21:16:52;21.10;99.90
58983;DHT22;44771;49.982;8.560;2022-07-22T21:22:14;21.20;99.90
58983;DHT22;44771;49.982;8.560;2022-07-22T21:27:24;21.40;99.90
58983;DHT22;44771;49.982;8.560;2022-07-22T21:32:30;21.60;99.90
58983;DHT22;44771;49.982;8.560;2022-07-22T21:37:32;21.80;99.90
58983;DHT22;44771;49.982;8.560;2022-07-22T21:42:35;21.80;99.90
58983;DHT22;44771;49.982;8.560;2022-07-22T21:47:37;21.90;99.90
58983;DHT22;44771;49.982;8.560;2022-07-22T21:52:40;22.00;99.90
58983;DHT22;44771;49.982;8.560;2022-07-22T21:57:43;22.20;99.90
58983;DHT22;44771;49.982;8.560;2022-07-22T22:02:45;22.20;99.90
58983;DHT22;44771;49.982;8.560;2022-07-22T22:07:47;22.30;99.90
58983;DHT22;44771;49.982;8.560;2022-07-22T22:12:54;22.30;99.90
58983;DHT22;44771;49.982;8.560;2022-07-22T22:17:55;22.20;99.90
58983;DHT22;44771;49.982;8.560;2022-07-22T22:22:57;22.20;99.90
58983;DHT22;44771;49.982;8.560;2022-07-22T22:34:30;22.10;99.90
58983;DHT22;44771;49.982;8.560;2022-07-22T22:39:32;21.90;99.90
58983;DHT22;44771;49.982;8.560;2022-07-22T22:44:34;21.80;99.90
58983;DHT22;44771;49.982;8.560;2022-07-22T22:55:30;21.70;99.90
58983;DHT22;44771;49.982;8.560;2022-07-22T23:00:32;21.60;99.90
58983;DHT22;44771;49.982;8.560;2022-07-22T23:05:34;21.50;99.90
58983;DHT22;44771;49.982;8.560;2022-07-22T23:10:41;21.40;99.90
58983;DHT22;44771;49.982;8.560;2022-07-22T23:15:43;21.30;99.90
58983;DHT22;44771;49.982;8.560;2022-07-22T23:20:44;21.10;99.90
58983;DHT22;44771;49.982;8.560;2022-07-22T23:25:48;21.00;99.90
58983;DHT22;44771;49.982;8.560;2022-07-22T23:31:14;21.00;99.90
58983;DHT22;44771;49.982;8.560;2022-07-22T23:36:16;20.90;99.90
58983;DHT22;44771;49.982;8.560;2022-07-22T23:41:19;20.80;99.90
58983;DHT22;44771;49.982;8.560;2022-07-22T23:46:21;20.90;99.90
58983;DHT22;44771;49.982;8.560;2022-07-22T23:51:29;21.00;99.90
58983;DHT22;44771;49.982;8.560;2022-07-22T23:56:51;21.00;99.90
